createdAt,value
2018-06-27T00:01:53.175Z,95.90
2018-06-27T00:04:20.919Z,95.90
2018-06-27T00:06:48.399Z,95.90
2018-06-27T00:09:16.057Z,95.80
2018-06-27T00:11:44.367Z,95.90
2018-06-27T00:14:12.071Z,96.00
2018-06-27T00:16:39.948Z,95.90
2018-06-27T00:19:07.797Z,95.90
2018-06-27T00:21:36.114Z,96.00
2018-06-27T00:24:05.433Z,96.10
2018-06-27T00:26:34.067Z,96.00
2018-06-27T00:29:01.514Z,96.10
2018-06-27T00:31:29.026Z,96.20
2018-06-27T00:33:56.512Z,96.20
2018-06-27T00:36:24.157Z,96.20
2018-06-27T00:38:51.682Z,96.20
2018-06-27T00:41:19.471Z,96.30
2018-06-27T00:43:47.459Z,96.40
2018-06-27T00:46:15.111Z,96.50
2018-06-27T00:48:42.618Z,96.60
2018-06-27T00:51:10.528Z,96.50
2018-06-27T00:53:43.598Z,96.60
2018-06-27T00:56:11.267Z,96.70
2018-06-27T00:58:39.132Z,96.70
2018-06-27T01:01:07.123Z,96.70
2018-06-27T01:03:34.796Z,97.10
2018-06-27T01:06:02.373Z,96.70
2018-06-27T01:08:29.908Z,96.60
2018-06-27T01:10:57.403Z,96.70
2018-06-27T01:15:52.663Z,96.60
2018-06-27T01:18:21.279Z,96.60
2018-06-27T01:20:48.937Z,96.70
2018-06-27T01:23:17.675Z,96.80
2018-06-27T01:25:45.160Z,96.90
2018-06-27T01:28:12.810Z,96.90
2018-06-27T01:30:40.698Z,96.90
2018-06-27T01:33:08.832Z,96.90
2018-06-27T01:38:04.868Z,97.00
2018-06-27T01:40:32.393Z,97.00
2018-06-27T01:43:00.090Z,97.10
2018-06-27T01:45:28.146Z,97.20
2018-06-27T01:47:56.083Z,97.20
2018-06-27T01:50:24.714Z,97.20
2018-06-27T01:52:52.505Z,97.20
2018-06-27T01:55:20.129Z,97.40
2018-06-27T01:57:47.675Z,97.40
2018-06-27T02:00:15.684Z,97.40
2018-06-27T02:02:43.646Z,97.50
2018-06-27T02:05:11.122Z,97.50
2018-06-27T02:07:38.557Z,97.50
2018-06-27T02:10:06.041Z,97.60
2018-06-27T02:12:33.457Z,97.60
2018-06-27T02:15:00.905Z,97.60
2018-06-27T02:17:28.615Z,97.60
2018-06-27T02:19:56.017Z,97.60
2018-06-27T02:22:23.518Z,97.60
2018-06-27T02:27:18.387Z,97.70
2018-06-27T02:29:45.792Z,97.60
2018-06-27T02:32:13.206Z,97.70
2018-06-27T02:37:08.126Z,97.70
2018-06-27T02:39:35.522Z,97.70
2018-06-27T02:42:03.365Z,98.00
2018-06-27T02:44:30.883Z,97.60
2018-06-27T02:46:58.469Z,97.60
2018-06-27T02:49:25.903Z,97.60
2018-06-27T02:51:53.319Z,97.60
2018-06-27T02:54:20.755Z,97.70
2018-06-27T02:56:48.212Z,97.60
2018-06-27T02:59:15.697Z,97.60
2018-06-27T03:01:43.436Z,97.60
2018-06-27T03:04:10.907Z,97.70
2018-06-27T03:06:38.587Z,97.80
2018-06-27T03:09:07.620Z,97.90
2018-06-27T03:11:35.141Z,98.00
2018-06-27T03:14:02.983Z,98.00
2018-06-27T03:16:30.466Z,98.10
2018-06-27T03:18:57.946Z,98.10
2018-06-27T03:21:25.798Z,98.20
2018-06-27T03:23:53.573Z,98.20
2018-06-27T03:26:21.034Z,98.30
2018-06-27T03:28:48.494Z,98.30
2018-06-27T03:31:16.328Z,98.40
2018-06-27T03:33:44.022Z,98.40
2018-06-27T03:36:11.837Z,98.50
2018-06-27T03:38:39.386Z,98.50
2018-06-27T03:41:07.080Z,98.50
2018-06-27T03:43:34.580Z,98.60
2018-06-27T03:46:02.282Z,98.60
2018-06-27T03:48:29.788Z,98.50
2018-06-27T03:50:57.255Z,98.60
2018-06-27T03:53:24.767Z,98.70
2018-06-27T03:55:52.413Z,98.70
2018-06-27T03:58:19.845Z,98.80
2018-06-27T04:00:47.320Z,98.80
2018-06-27T04:03:14.857Z,98.90
2018-06-27T04:05:42.794Z,99.00
2018-06-27T04:08:10.275Z,99.10
2018-06-27T04:10:37.741Z,99.10
2018-06-27T04:13:05.383Z,99.20
2018-06-27T04:15:35.499Z,99.30
2018-06-27T04:18:03.355Z,99.30
2018-06-27T04:20:30.894Z,99.40
2018-06-27T04:22:58.358Z,99.50
2018-06-27T04:25:25.874Z,99.50
2018-06-27T04:27:53.435Z,99.60
2018-06-27T04:30:20.865Z,99.60
2018-06-27T04:32:48.439Z,99.70
2018-06-27T04:35:16.215Z,99.80
2018-06-27T04:37:43.944Z,99.80
2018-06-27T04:40:11.526Z,99.90
2018-06-27T04:42:39.139Z,99.90
2018-06-27T04:45:06.618Z,99.90
2018-06-27T04:47:34.077Z,99.90
2018-06-27T04:50:01.534Z,99.90
2018-06-27T04:52:29.048Z,99.90
2018-06-27T04:54:56.760Z,99.90
2018-06-27T04:57:24.391Z,99.90
2018-06-27T04:59:51.850Z,99.90
2018-06-27T05:02:19.326Z,99.90
2018-06-27T05:04:46.794Z,99.90
2018-06-27T05:07:14.335Z,99.90
2018-06-27T05:09:42.028Z,99.90
2018-06-27T05:12:09.495Z,99.90
2018-06-27T05:14:36.946Z,99.90
2018-06-27T05:17:04.503Z,99.90
2018-06-27T05:19:32.065Z,99.90
2018-06-27T05:21:59.568Z,99.90
2018-06-27T05:24:27.090Z,99.90
2018-06-27T05:26:54.529Z,99.90
2018-06-27T05:29:21.940Z,99.90
2018-06-27T05:31:49.663Z,99.90
2018-06-27T05:34:17.140Z,99.90
2018-06-27T05:36:44.736Z,99.90
2018-06-27T05:39:12.339Z,99.90
2018-06-27T05:41:39.882Z,99.90
2018-06-27T05:44:07.429Z,99.90
2018-06-27T05:46:35.297Z,99.90
2018-06-27T05:49:02.922Z,99.90
2018-06-27T05:51:30.716Z,99.90
2018-06-27T05:53:58.185Z,99.90
2018-06-27T05:56:25.707Z,99.90
2018-06-27T05:58:53.177Z,99.90
2018-06-27T06:01:20.723Z,99.90
2018-06-27T06:03:48.747Z,99.90
2018-06-27T06:06:16.502Z,99.90
2018-06-27T06:08:44.273Z,99.90
2018-06-27T06:11:11.736Z,99.90
2018-06-27T06:13:39.166Z,99.90
2018-06-27T06:16:06.751Z,99.90
2018-06-27T06:18:34.217Z,99.90
2018-06-27T06:21:01.692Z,99.90
2018-06-27T06:23:29.238Z,99.90
2018-06-27T06:25:56.774Z,99.90
2018-06-27T06:28:24.605Z,99.90
2018-06-27T06:30:52.149Z,99.90
2018-06-27T06:33:19.686Z,99.90
2018-06-27T06:35:47.315Z,99.90
2018-06-27T06:38:14.741Z,99.90
2018-06-27T06:40:42.231Z,99.90
2018-06-27T06:43:09.843Z,99.90
2018-06-27T06:45:37.295Z,99.90
2018-06-27T06:48:05.266Z,99.90
2018-06-27T06:50:32.705Z,99.90
2018-06-27T06:55:28.407Z,99.90
2018-06-27T06:57:55.850Z,99.90
2018-06-27T07:00:23.386Z,99.90
2018-06-27T07:02:51.297Z,99.90
2018-06-27T07:05:18.797Z,99.90
2018-06-27T07:07:46.223Z,99.90
2018-06-27T07:10:13.670Z,99.90
2018-06-27T07:12:41.270Z,99.90
2018-06-27T07:15:08.698Z,99.90
2018-06-27T07:17:36.409Z,99.90
2018-06-27T07:20:04.519Z,99.90
2018-06-27T07:22:31.989Z,99.90
2018-06-27T07:24:59.423Z,99.90
2018-06-27T07:27:26.820Z,99.90
2018-06-27T07:29:54.293Z,99.90
2018-06-27T07:32:21.754Z,99.90
2018-06-27T07:34:49.322Z,99.90
2018-06-27T07:37:17.261Z,99.90
2018-06-27T07:39:45.110Z,99.90
2018-06-27T07:42:12.604Z,99.90
2018-06-27T07:44:40.086Z,99.90
2018-06-27T07:47:07.814Z,99.90
2018-06-27T07:49:35.303Z,99.90
2018-06-27T07:52:03.529Z,99.90
2018-06-27T07:54:37.099Z,99.90
2018-06-27T07:57:04.781Z,99.90
2018-06-27T07:59:32.350Z,99.90
2018-06-27T08:01:59.855Z,99.90
2018-06-27T08:04:27.327Z,99.90
2018-06-27T08:06:54.759Z,99.90
2018-06-27T08:09:22.227Z,99.90
2018-06-27T08:11:49.771Z,99.90
2018-06-27T08:14:17.358Z,99.90
2018-06-27T08:16:45.038Z,99.90
2018-06-27T08:19:12.503Z,99.90
2018-06-27T08:21:40.027Z,99.90
2018-06-27T08:24:07.494Z,99.90
2018-06-27T08:26:35.003Z,99.90
2018-06-27T08:29:02.527Z,99.90
2018-06-27T08:31:30.077Z,99.90
2018-06-27T08:33:57.570Z,99.90
2018-06-27T08:36:25.266Z,99.90
2018-06-27T08:38:52.739Z,99.90
2018-06-27T08:41:20.352Z,99.90
2018-06-27T08:43:47.967Z,99.90
2018-06-27T08:46:15.398Z,99.90
2018-06-27T08:48:43.086Z,99.90
2018-06-27T08:51:10.542Z,99.90
2018-06-27T08:53:37.997Z,99.90
2018-06-27T08:56:05.934Z,99.90
2018-06-27T08:58:33.429Z,99.90
2018-06-27T09:01:01.009Z,99.90
2018-06-27T09:03:28.474Z,99.90
2018-06-27T09:05:56.039Z,99.90
2018-06-27T09:08:23.502Z,99.90
2018-06-27T09:10:51.123Z,99.90
2018-06-27T09:13:18.648Z,99.90
2018-06-27T09:15:46.391Z,99.90
2018-06-27T09:18:14.000Z,99.90
2018-06-27T09:20:41.405Z,99.90
2018-06-27T09:23:09.038Z,99.90
2018-06-27T09:25:36.409Z,99.90
2018-06-27T09:28:03.984Z,99.90
2018-06-27T09:30:31.512Z,99.90
2018-06-27T09:32:59.008Z,99.90
2018-06-27T09:35:26.596Z,99.90
2018-06-27T09:37:54.341Z,99.90
2018-06-27T09:40:21.815Z,99.90
2018-06-27T09:42:49.317Z,99.90
2018-06-27T09:45:16.875Z,99.90
2018-06-27T09:47:44.353Z,99.90
2018-06-27T09:50:11.853Z,99.90
2018-06-27T09:52:39.393Z,99.90
2018-06-27T09:55:07.149Z,99.90
2018-06-27T09:57:34.637Z,99.90
2018-06-27T10:00:02.557Z,99.90
2018-06-27T10:02:30.150Z,99.90
2018-06-27T10:07:25.255Z,99.90
2018-06-27T10:09:52.680Z,99.90
2018-06-27T10:12:20.215Z,99.90
2018-06-27T10:14:47.643Z,99.90
2018-06-27T10:17:15.199Z,99.90
2018-06-27T10:19:42.635Z,99.90
2018-06-27T10:22:10.080Z,99.90
2018-06-27T10:24:37.575Z,99.90
2018-06-27T10:27:05.403Z,99.90
2018-06-27T10:29:32.905Z,98.80
2018-06-27T10:32:00.421Z,99.00
2018-06-27T10:34:28.010Z,98.60
2018-06-27T10:36:55.422Z,99.00
2018-06-27T10:39:22.971Z,99.30
2018-06-27T10:41:50.479Z,98.80
2018-06-27T10:44:17.945Z,99.30
2018-06-27T10:46:45.551Z,99.30
2018-06-27T10:49:13.101Z,99.50
2018-06-27T10:51:40.573Z,98.80
2018-06-27T10:54:08.015Z,99.10
2018-06-27T10:56:35.637Z,99.00
2018-06-27T10:59:03.115Z,99.30
2018-06-27T11:01:30.646Z,99.20
2018-06-27T11:03:58.187Z,99.30
2018-06-27T11:06:25.727Z,99.50
2018-06-27T11:08:53.381Z,99.70
2018-06-27T11:11:20.770Z,99.90
2018-06-27T11:13:48.330Z,99.90
2018-06-27T11:16:15.857Z,99.90
2018-06-27T11:18:43.308Z,99.90
2018-06-27T11:21:10.865Z,99.90
2018-06-27T11:23:38.402Z,99.90
2018-06-27T11:26:06.228Z,99.50
2018-06-27T11:28:33.662Z,99.60
2018-06-27T11:31:01.274Z,99.30
2018-06-27T11:33:28.807Z,99.90
2018-06-27T11:35:56.282Z,99.70
2018-06-27T11:38:23.860Z,99.70
2018-06-27T11:40:51.332Z,99.10
2018-06-27T11:43:18.811Z,98.60
2018-06-27T11:45:46.419Z,99.10
2018-06-27T11:48:14.078Z,98.40
2018-06-27T11:50:41.495Z,97.10
2018-06-27T11:53:08.955Z,97.20
2018-06-27T11:58:04.275Z,96.60
2018-06-27T12:00:32.091Z,96.60
2018-06-27T12:02:59.599Z,96.50
2018-06-27T12:05:27.063Z,96.60
2018-06-27T12:07:54.553Z,96.10
2018-06-27T12:10:22.058Z,96.30
2018-06-27T12:12:49.519Z,96.50
2018-06-27T12:15:17.000Z,96.50
2018-06-27T12:17:44.529Z,95.80
2018-06-27T12:20:11.962Z,95.60
2018-06-27T12:22:39.432Z,95.80
2018-06-27T12:25:07.081Z,95.40
2018-06-27T12:27:34.639Z,95.50
2018-06-27T12:30:02.252Z,95.90
2018-06-27T12:34:57.200Z,96.20
2018-06-27T12:37:24.654Z,95.60
2018-06-27T12:39:52.130Z,95.60
2018-06-27T12:42:19.811Z,95.30
2018-06-27T12:44:47.347Z,95.40
2018-06-27T12:47:14.855Z,95.60
2018-06-27T12:49:42.399Z,95.30
2018-06-27T12:52:10.089Z,96.00
2018-06-27T12:54:37.790Z,96.00
2018-06-27T12:57:05.274Z,96.00
2018-06-27T12:59:32.877Z,95.10
2018-06-27T13:02:00.360Z,95.00
2018-06-27T13:04:27.813Z,95.00
2018-06-27T13:06:55.296Z,95.30
2018-06-27T13:09:22.818Z,95.20
2018-06-27T13:14:17.838Z,95.20
2018-06-27T13:16:45.351Z,94.90
2018-06-27T13:19:13.001Z,95.40
2018-06-27T13:21:40.610Z,94.70
2018-06-27T13:26:35.616Z,95.10
2018-06-27T13:29:03.204Z,95.40
2018-06-27T13:33:58.177Z,94.50
2018-06-27T13:36:25.713Z,95.30
2018-06-27T13:38:53.209Z,95.50
2018-06-27T13:41:20.674Z,94.60
2018-06-27T13:43:48.183Z,94.20
2018-06-27T13:46:15.869Z,94.40
2018-06-27T13:48:43.685Z,94.70
2018-06-27T13:51:11.298Z,94.70
2018-06-27T13:53:38.869Z,94.10
2018-06-27T13:56:06.446Z,94.40
2018-06-27T14:01:01.322Z,94.50
2018-06-27T14:03:28.895Z,93.80
2018-06-27T14:05:56.459Z,94.80
2018-06-27T14:08:24.191Z,94.10
2018-06-27T14:10:51.825Z,94.30
2018-06-27T14:13:20.631Z,93.20
2018-06-27T14:18:15.778Z,93.50
2018-06-27T14:23:10.958Z,94.60
2018-06-27T14:25:38.521Z,94.50
2018-06-27T14:28:06.098Z,92.60
2018-06-27T14:30:33.517Z,93.30
2018-06-27T14:33:00.995Z,92.90
2018-06-27T14:37:55.945Z,94.30
2018-06-27T14:40:23.835Z,94.00
2018-06-27T14:42:51.502Z,93.50
2018-06-27T14:45:18.961Z,93.50
2018-06-27T14:47:46.337Z,93.30
2018-06-27T14:50:13.818Z,92.20
2018-06-27T14:52:41.335Z,91.10
2018-06-27T14:55:09.326Z,91.10
2018-06-27T15:00:05.695Z,93.10
2018-06-27T15:02:33.130Z,92.00
2018-06-27T15:05:00.734Z,93.10
2018-06-27T15:07:28.214Z,91.70
2018-06-27T15:09:56.143Z,92.80
2018-06-27T15:12:23.699Z,92.40
2018-06-27T15:14:51.287Z,92.10
2018-06-27T15:17:21.882Z,91.00
2018-06-27T15:19:49.734Z,92.00
2018-06-27T15:22:17.205Z,90.70
2018-06-27T15:24:44.814Z,88.40
2018-06-27T15:27:12.428Z,87.60
2018-06-27T15:29:40.612Z,86.10
2018-06-27T15:32:08.308Z,88.70
2018-06-27T15:34:36.273Z,87.60
2018-06-27T15:37:04.325Z,87.20
2018-06-27T15:39:31.930Z,85.50
2018-06-27T15:44:26.834Z,84.60
2018-06-27T15:46:54.433Z,81.50
2018-06-27T15:49:22.118Z,84.50
2018-06-27T15:54:17.196Z,82.80
2018-06-27T15:56:44.859Z,82.80
2018-06-27T15:59:12.582Z,83.40
2018-06-27T16:01:40.473Z,79.90
2018-06-27T16:04:08.055Z,82.80
2018-06-27T16:06:35.682Z,82.10
2018-06-27T16:09:05.197Z,79.50
2018-06-27T16:11:32.803Z,81.50
2018-06-27T16:14:00.527Z,79.40
2018-06-27T16:16:28.250Z,81.30
2018-06-27T16:18:55.730Z,82.00
2018-06-27T16:21:23.654Z,82.60
2018-06-27T16:23:51.222Z,81.80
2018-06-27T16:26:18.955Z,82.70
2018-06-27T16:28:46.483Z,82.10
2018-06-27T16:31:14.406Z,82.80
2018-06-27T16:33:41.972Z,82.30
2018-06-27T16:36:09.484Z,82.40
2018-06-27T16:38:36.963Z,82.70
2018-06-27T16:43:32.183Z,82.30
2018-06-27T16:45:59.755Z,83.20
2018-06-27T16:48:28.398Z,82.10
2018-06-27T16:50:56.081Z,83.00
2018-06-27T16:53:23.791Z,80.30
2018-06-27T16:55:51.308Z,79.80
2018-06-27T16:58:18.901Z,78.30
2018-06-27T17:00:46.600Z,81.10
2018-06-27T17:03:14.465Z,82.50
2018-06-27T17:05:41.935Z,81.30
2018-06-27T17:10:36.843Z,82.20
2018-06-27T17:13:04.562Z,83.40
2018-06-27T17:15:32.238Z,83.80
2018-06-27T17:17:59.727Z,83.70
2018-06-27T17:20:27.693Z,83.60
2018-06-27T17:22:55.181Z,83.30
2018-06-27T17:25:22.767Z,83.70
2018-06-27T17:27:50.327Z,79.90
2018-06-27T17:30:17.884Z,81.90
2018-06-27T17:32:45.398Z,82.50
2018-06-27T17:37:40.279Z,82.90
2018-06-27T17:40:07.911Z,81.50
2018-06-27T17:42:35.722Z,83.60
2018-06-27T17:45:03.689Z,80.50
2018-06-27T17:47:31.157Z,82.50
2018-06-27T17:49:58.563Z,83.90
2018-06-27T17:52:26.327Z,84.20
2018-06-27T17:54:53.764Z,84.00
2018-06-27T17:57:21.313Z,82.60
2018-06-27T17:59:48.915Z,82.80
2018-06-27T18:02:16.427Z,84.50
2018-06-27T18:04:44.095Z,83.20
2018-06-27T18:07:11.610Z,83.00
2018-06-27T18:09:39.107Z,83.20
2018-06-27T18:12:06.567Z,83.10
2018-06-27T18:14:34.217Z,83.20
2018-06-27T18:17:02.059Z,83.20
2018-06-27T18:19:29.770Z,83.60
2018-06-27T18:21:57.353Z,83.30
2018-06-27T18:24:25.161Z,82.90
2018-06-27T18:26:52.823Z,82.80
2018-06-27T18:29:20.507Z,83.70
2018-06-27T18:31:48.138Z,83.40
2018-06-27T18:34:16.387Z,83.60
2018-06-27T18:36:44.068Z,83.70
2018-06-27T18:39:11.917Z,83.50
2018-06-27T18:41:39.707Z,83.70
2018-06-27T18:44:07.182Z,82.40
2018-06-27T18:46:35.249Z,83.00
2018-06-27T18:49:03.139Z,82.80
2018-06-27T18:51:31.187Z,83.10
2018-06-27T18:53:59.095Z,82.70
2018-06-27T18:56:26.975Z,82.70
2018-06-27T18:58:54.829Z,83.40
2018-06-27T19:01:22.438Z,83.20
2018-06-27T19:03:50.347Z,82.00
2018-06-27T19:06:18.263Z,82.00
2018-06-27T19:08:45.871Z,82.40
2018-06-27T19:11:13.433Z,82.30
2018-06-27T19:13:41.170Z,83.40
2018-06-27T19:16:08.875Z,82.40
2018-06-27T19:18:36.491Z,82.50
2018-06-27T19:21:04.184Z,82.50
2018-06-27T19:25:59.409Z,82.30
2018-06-27T19:28:26.915Z,82.60
2018-06-27T19:30:54.382Z,82.80
2018-06-27T19:33:22.099Z,83.00
2018-06-27T19:35:49.719Z,83.60
2018-06-27T19:38:17.381Z,82.40
2018-06-27T19:40:45.262Z,82.50
2018-06-27T19:43:13.219Z,83.00
2018-06-27T19:45:41.250Z,83.50
2018-06-27T19:48:08.896Z,83.90
2018-06-27T19:50:36.708Z,83.60
2018-06-27T19:53:04.705Z,83.10
2018-06-27T19:55:32.637Z,81.80
2018-06-27T19:58:00.335Z,83.30
2018-06-27T20:00:28.158Z,82.00
2018-06-27T20:02:55.801Z,82.00
2018-06-27T20:05:23.290Z,82.20
2018-06-27T20:07:50.847Z,82.20
2018-06-27T20:10:18.529Z,82.10
2018-06-27T20:12:46.025Z,82.30
2018-06-27T20:17:41.204Z,83.50
2018-06-27T20:20:09.427Z,82.90
2018-06-27T20:22:37.228Z,82.40
2018-06-27T20:25:04.770Z,82.80
2018-06-27T20:27:32.365Z,82.80
2018-06-27T20:30:00.078Z,82.50
2018-06-27T20:32:27.601Z,82.70
2018-06-27T20:34:55.074Z,83.30
2018-06-27T20:37:22.591Z,83.60
2018-06-27T20:39:50.079Z,83.10
2018-06-27T20:42:18.000Z,82.50
2018-06-27T20:44:45.524Z,82.70
2018-06-27T20:49:40.733Z,83.70
2018-06-27T20:52:08.326Z,83.20
2018-06-27T20:54:36.005Z,82.90
2018-06-27T20:57:03.831Z,83.20
2018-06-27T20:59:31.331Z,83.40
2018-06-27T21:04:26.315Z,83.20
2018-06-27T21:09:21.395Z,82.90
2018-06-27T21:11:48.982Z,83.60
2018-06-27T21:14:16.476Z,83.60
2018-06-27T21:16:44.101Z,83.60
2018-06-27T21:19:11.527Z,83.60
2018-06-27T21:21:39.135Z,83.70
2018-06-27T21:24:06.725Z,83.90
2018-06-27T21:26:34.326Z,83.40
2018-06-27T21:29:01.855Z,83.60
2018-06-27T21:31:29.505Z,84.00
2018-06-27T21:33:56.951Z,83.80
2018-06-27T21:36:24.507Z,84.40
2018-06-27T21:38:52.063Z,84.40
2018-06-27T21:41:19.522Z,84.30
2018-06-27T21:43:47.071Z,83.70
2018-06-27T21:46:14.545Z,84.20
2018-06-27T21:48:42.043Z,84.30
2018-06-27T21:51:09.559Z,84.30
2018-06-27T21:53:37.064Z,84.50
2018-06-27T21:56:05.103Z,84.70
2018-06-27T21:58:33.060Z,85.10
2018-06-27T22:01:01.007Z,84.60
2018-06-27T22:03:28.689Z,84.50
2018-06-27T22:05:56.436Z,85.00
2018-06-27T22:08:24.515Z,84.70
2018-06-27T22:10:52.343Z,84.70
2018-06-27T22:13:19.940Z,85.10
2018-06-27T22:15:47.759Z,85.40
2018-06-27T22:18:15.829Z,85.30
2018-06-27T22:20:43.500Z,85.50
2018-06-27T22:23:11.120Z,85.80
2018-06-27T22:25:38.710Z,85.60
2018-06-27T22:28:06.299Z,86.10
2018-06-27T22:30:33.803Z,86.10
2018-06-27T22:33:01.234Z,86.10
2018-06-27T22:35:28.674Z,85.90
2018-06-27T22:37:56.266Z,86.10
2018-06-27T22:40:23.802Z,86.20
2018-06-27T22:42:51.259Z,86.40
2018-06-27T22:45:18.737Z,86.20
2018-06-27T22:47:46.127Z,86.30
2018-06-27T22:50:13.583Z,86.80
2018-06-27T22:55:08.607Z,86.80
2018-06-27T22:57:36.220Z,86.60
2018-06-27T23:00:04.287Z,86.60
2018-06-27T23:02:31.769Z,86.70
2018-06-27T23:04:59.250Z,86.80
2018-06-27T23:07:26.767Z,87.00
2018-06-27T23:09:54.325Z,87.00
2018-06-27T23:12:21.746Z,87.10
2018-06-27T23:14:49.231Z,87.30
2018-06-27T23:17:16.898Z,87.30
2018-06-27T23:19:44.366Z,87.50
2018-06-27T23:22:23.474Z,87.50
2018-06-27T23:24:50.960Z,87.40
2018-06-27T23:27:18.395Z,87.70
2018-06-27T23:29:45.867Z,87.90
2018-06-27T23:32:13.315Z,87.70
2018-06-27T23:34:40.803Z,87.80
2018-06-27T23:37:08.450Z,87.90
2018-06-27T23:39:36.026Z,87.80
2018-06-27T23:42:03.688Z,88.10
2018-06-27T23:46:58.889Z,88.30
2018-06-27T23:49:26.471Z,88.10
2018-06-27T23:51:53.955Z,88.40
2018-06-27T23:54:21.399Z,88.20
2018-06-27T23:56:48.869Z,88.60
2018-06-27T23:59:22.411Z,88.60
